createdAt,value
2019-05-21T00:03:22.359Z,28.55
2019-05-21T00:08:25.076Z,29.23
2019-05-21T00:13:28.122Z,26.02
2019-05-21T00:18:30.838Z,25.85
2019-05-21T00:23:33.806Z,25.00
2019-05-21T00:28:37.750Z,28.80
2019-05-21T00:34:16.648Z,29.77
2019-05-21T00:39:55.915Z,27.17
2019-05-21T00:44:58.675Z,25.12
2019-05-21T00:50:01.503Z,28.95
2019-05-21T00:55:25.139Z,23.40
2019-05-21T01:00:27.813Z,25.82
2019-05-21T01:05:30.465Z,25.60
2019-05-21T01:10:33.120Z,26.37
2019-05-21T01:15:35.779Z,27.55
2019-05-21T01:20:38.545Z,26.05
2019-05-21T01:25:41.260Z,29.92
2019-05-21T01:30:43.977Z,30.27
2019-05-21T01:35:46.632Z,32.93
2019-05-21T01:40:49.286Z,30.50
2019-05-21T01:45:52.306Z,34.95
2019-05-21T01:50:54.975Z,34.20
2019-05-21T01:56:01.993Z,29.10
2019-05-21T02:01:04.810Z,36.93
2019-05-21T02:06:07.641Z,32.73
2019-05-21T02:11:10.390Z,36.83
2019-05-21T02:16:13.136Z,29.75
2019-05-21T02:21:15.797Z,34.43
2019-05-21T02:26:18.477Z,33.65
2019-05-21T02:31:21.151Z,33.67
2019-05-21T02:36:23.888Z,34.13
2019-05-21T02:41:26.701Z,31.62
2019-05-21T02:46:29.368Z,33.60
2019-05-21T02:51:32.127Z,32.45
2019-05-21T02:56:34.900Z,34.10
2019-05-21T03:01:37.671Z,30.40
2019-05-21T03:06:40.405Z,31.90
2019-05-21T03:11:43.092Z,33.50
2019-05-21T03:16:45.822Z,33.70
2019-05-21T03:21:48.471Z,37.45
2019-05-21T03:26:51.520Z,38.30
2019-05-21T03:31:54.276Z,36.08
2019-05-21T03:36:57.034Z,35.50
2019-05-21T03:41:59.763Z,35.58
2019-05-21T03:47:02.578Z,38.30
2019-05-21T03:52:05.308Z,34.48
2019-05-21T03:57:07.969Z,37.85
2019-05-21T04:02:10.762Z,36.68
2019-05-21T04:07:13.441Z,36.28
2019-05-21T04:12:16.190Z,36.25
2019-05-21T04:17:18.919Z,32.28
2019-05-21T04:22:21.661Z,32.73
2019-05-21T04:27:24.343Z,31.07
2019-05-21T04:32:27.075Z,30.50
2019-05-21T04:37:29.749Z,29.77
2019-05-21T04:42:32.853Z,30.17
2019-05-21T04:47:35.608Z,26.45
2019-05-21T04:52:38.349Z,27.55
2019-05-21T04:57:41.359Z,28.12
2019-05-21T05:02:44.089Z,27.67
2019-05-21T05:07:47.051Z,24.45
2019-05-21T05:12:49.707Z,26.25
2019-05-21T05:17:52.380Z,26.25
2019-05-21T05:22:55.047Z,25.40
2019-05-21T05:27:57.720Z,23.73
2019-05-21T05:33:00.456Z,28.12
2019-05-21T05:38:03.229Z,25.17
2019-05-21T05:43:05.972Z,26.37
2019-05-21T05:48:09.139Z,25.27
2019-05-21T05:53:11.800Z,22.85
2019-05-21T05:58:14.484Z,22.40
2019-05-21T06:03:17.137Z,23.40
2019-05-21T06:08:19.865Z,22.22
2019-05-21T06:13:22.532Z,22.02
2019-05-21T06:18:25.267Z,22.37
2019-05-21T06:23:27.994Z,23.52
2019-05-21T06:28:30.661Z,19.95
2019-05-21T06:33:33.390Z,19.17
2019-05-21T06:38:36.059Z,18.20
2019-05-21T06:43:38.821Z,20.40
2019-05-21T06:48:41.596Z,19.50
2019-05-21T06:53:44.282Z,19.87
2019-05-21T06:58:47.027Z,19.12
2019-05-21T07:03:50.127Z,20.72
2019-05-21T07:08:52.875Z,18.67
2019-05-21T07:13:55.615Z,15.38
2019-05-21T07:18:58.287Z,21.85
2019-05-21T07:24:01.443Z,18.27
2019-05-21T07:29:04.173Z,18.48
2019-05-21T07:34:06.906Z,20.40
2019-05-21T07:39:09.660Z,21.77
2019-05-21T07:44:12.437Z,21.02
2019-05-21T07:49:15.191Z,20.37
2019-05-21T07:54:17.973Z,23.83
2019-05-21T07:59:22.437Z,23.80
2019-05-21T08:04:25.181Z,23.83
2019-05-21T08:09:28.022Z,22.48
2019-05-21T08:14:30.763Z,21.27
2019-05-21T08:19:33.417Z,21.80
2019-05-21T08:24:36.094Z,21.95
2019-05-21T08:29:38.835Z,22.98
2019-05-21T08:34:41.503Z,20.10
2019-05-21T08:39:44.256Z,16.37
2019-05-21T08:44:47.049Z,17.15
2019-05-21T08:49:50.134Z,17.60
2019-05-21T08:54:56.255Z,14.50
2019-05-21T08:59:57.779Z,14.28
2019-05-21T09:05:00.519Z,14.10
2019-05-21T09:10:05.048Z,14.20
2019-05-21T09:15:09.062Z,14.10
2019-05-21T09:20:12.941Z,13.58
2019-05-21T09:25:15.948Z,11.38
2019-05-21T09:30:20.634Z,9.88
2019-05-21T09:35:23.379Z,12.55
2019-05-21T09:40:26.263Z,12.23
2019-05-21T09:45:28.994Z,12.28
2019-05-21T09:50:31.722Z,12.47
2019-05-21T09:55:34.382Z,10.98
2019-05-21T10:00:37.055Z,12.43
2019-05-21T10:05:39.788Z,12.23
2019-05-21T10:10:42.860Z,12.18
2019-05-21T10:15:45.839Z,10.60
2019-05-21T10:20:49.859Z,11.60
2019-05-21T10:25:52.619Z,13.68
2019-05-21T10:30:55.374Z,11.73
2019-05-21T10:35:58.541Z,9.55
2019-05-21T10:41:01.828Z,10.43
2019-05-21T10:46:04.878Z,12.78
2019-05-21T10:51:07.627Z,11.22
2019-05-21T10:56:10.438Z,10.70
2019-05-21T11:01:13.193Z,9.23
2019-05-21T11:06:15.872Z,8.88
2019-05-21T11:11:21.204Z,9.70
2019-05-21T11:16:23.084Z,9.23
2019-05-21T11:21:25.810Z,9.25
2019-05-21T11:26:28.634Z,9.00
2019-05-21T11:31:31.459Z,8.75
2019-05-21T11:36:34.289Z,8.23
2019-05-21T11:41:37.096Z,8.73
2019-05-21T11:46:39.766Z,7.58
2019-05-21T11:51:42.475Z,7.95
2019-05-21T11:56:45.170Z,8.23
2019-05-21T12:01:47.910Z,8.40
2019-05-21T12:06:54.132Z,8.93
2019-05-21T12:11:56.864Z,6.92
2019-05-21T12:16:59.515Z,7.30
2019-05-21T12:22:02.189Z,6.37
2019-05-21T12:27:04.979Z,6.17
2019-05-21T12:32:07.639Z,6.15
2019-05-21T12:37:10.307Z,6.28
2019-05-21T12:42:13.077Z,5.15
2019-05-21T12:47:16.137Z,6.28
2019-05-21T12:52:18.863Z,5.35
2019-05-21T12:57:21.931Z,6.60
2019-05-21T13:02:24.659Z,6.42
2019-05-21T13:07:27.332Z,5.85
2019-05-21T13:12:30.063Z,4.87
2019-05-21T13:17:32.818Z,4.40
2019-05-21T13:22:35.618Z,4.92
2019-05-21T13:27:38.304Z,6.08
2019-05-21T13:32:43.750Z,5.62
2019-05-21T13:37:45.426Z,5.70
2019-05-21T13:42:48.164Z,4.72
2019-05-21T13:47:50.940Z,4.55
2019-05-21T13:52:53.653Z,4.40
2019-05-21T13:57:56.532Z,4.37
2019-05-21T14:02:59.289Z,3.83
2019-05-21T14:08:02.024Z,4.58
2019-05-21T14:13:04.866Z,4.80
2019-05-21T14:18:07.862Z,3.90
2019-05-21T14:23:10.706Z,4.12
2019-05-21T14:28:13.349Z,3.75
2019-05-21T14:33:16.585Z,3.90
2019-05-21T14:38:19.342Z,4.30
2019-05-21T14:43:22.071Z,4.10
2019-05-21T14:48:24.805Z,4.20
2019-05-21T14:53:27.537Z,3.80
2019-05-21T14:58:30.219Z,4.62
2019-05-21T15:03:32.967Z,4.55
2019-05-21T15:08:35.699Z,4.12
2019-05-21T15:13:38.435Z,4.15
2019-05-21T15:18:42.070Z,4.47
2019-05-21T15:23:46.045Z,4.20
2019-05-21T15:28:49.399Z,5.25
2019-05-21T15:33:52.157Z,5.12
2019-05-21T15:38:56.431Z,4.35
2019-05-21T15:43:59.428Z,4.75
2019-05-21T15:49:02.239Z,4.22
2019-05-21T15:54:04.971Z,4.62
2019-05-21T15:59:07.715Z,4.60
2019-05-21T16:04:10.445Z,4.72
2019-05-21T16:09:13.310Z,3.98
2019-05-21T16:14:16.157Z,3.65
2019-05-21T16:19:18.907Z,3.90
2019-05-21T16:24:21.653Z,3.60
2019-05-21T16:29:24.379Z,3.10
2019-05-21T16:34:27.117Z,3.40
2019-05-21T16:39:29.926Z,3.30
2019-05-21T16:44:33.226Z,3.50
2019-05-21T16:49:35.900Z,3.52
2019-05-21T16:54:38.565Z,3.17
2019-05-21T16:59:41.648Z,3.52
2019-05-21T17:04:44.355Z,3.12
2019-05-21T17:09:47.107Z,3.62
2019-05-21T17:14:50.120Z,3.90
2019-05-21T17:19:52.946Z,3.87
2019-05-21T17:24:55.754Z,3.83
2019-05-21T17:29:58.601Z,4.50
2019-05-21T17:35:01.406Z,4.78
2019-05-21T17:40:05.210Z,4.60
2019-05-21T17:45:09.432Z,4.70
2019-05-21T17:50:12.478Z,4.67
2019-05-21T17:55:15.351Z,5.33
2019-05-21T18:00:18.369Z,5.22
2019-05-21T18:05:21.233Z,5.37
2019-05-21T18:10:23.974Z,5.22
2019-05-21T18:15:26.645Z,6.08
2019-05-21T18:20:29.842Z,5.92
2019-05-21T18:25:33.824Z,6.03
2019-05-21T18:30:36.526Z,7.10
2019-05-21T18:35:39.279Z,7.72
2019-05-21T18:40:42.064Z,7.67
2019-05-21T18:45:44.823Z,7.75
2019-05-21T18:50:47.931Z,7.50
2019-05-21T18:55:50.627Z,9.15
2019-05-21T19:00:53.431Z,9.88
2019-05-21T19:05:57.075Z,10.93
2019-05-21T19:10:59.814Z,11.28
2019-05-21T19:16:02.489Z,11.95
2019-05-21T19:21:05.231Z,11.70
2019-05-21T19:26:07.986Z,11.45
2019-05-21T19:31:10.877Z,11.40
2019-05-21T19:36:13.555Z,12.05
2019-05-21T19:41:16.371Z,13.05
2019-05-21T19:46:19.108Z,11.80
2019-05-21T19:51:21.908Z,12.63
2019-05-21T19:56:24.659Z,13.30
2019-05-21T20:01:27.398Z,12.93
2019-05-21T20:06:30.698Z,12.85
2019-05-21T20:11:33.515Z,13.95
2019-05-21T20:16:37.146Z,15.08
2019-05-21T20:21:40.265Z,12.65
2019-05-21T20:26:43.002Z,14.50
2019-05-21T20:31:45.681Z,15.00
2019-05-21T20:36:48.489Z,15.15
2019-05-21T20:41:51.188Z,14.78
2019-05-21T20:46:54.416Z,15.98
2019-05-21T20:51:57.146Z,14.18
2019-05-21T20:56:59.892Z,14.83
2019-05-21T21:02:05.657Z,14.68
2019-05-21T21:07:07.099Z,14.68
2019-05-21T21:12:10.031Z,16.82
2019-05-21T21:17:12.723Z,16.23
2019-05-21T21:22:15.405Z,17.40
2019-05-21T21:27:18.142Z,16.52
2019-05-21T21:32:20.947Z,16.57
2019-05-21T21:37:23.702Z,16.73
2019-05-21T21:42:26.441Z,18.20
2019-05-21T21:47:29.106Z,18.42
2019-05-21T21:52:31.916Z,16.60
2019-05-21T21:57:34.595Z,20.27
2019-05-21T22:02:37.681Z,17.85
2019-05-21T22:07:40.508Z,16.95
2019-05-21T22:12:43.516Z,19.02
2019-05-21T22:17:46.604Z,17.48
2019-05-21T22:22:49.335Z,16.75
2019-05-21T22:27:52.003Z,18.98
2019-05-21T22:32:54.728Z,18.15
2019-05-21T22:37:57.392Z,19.95
2019-05-21T22:43:00.074Z,19.45
2019-05-21T22:48:02.819Z,17.67
2019-05-21T22:53:05.555Z,18.50
2019-05-21T22:58:08.354Z,18.40
2019-05-21T23:03:11.083Z,18.45
2019-05-21T23:08:13.740Z,18.98
2019-05-21T23:13:16.402Z,20.20
2019-05-21T23:18:19.074Z,19.62
2019-05-21T23:23:23.443Z,19.37
2019-05-21T23:28:26.114Z,19.30
2019-05-21T23:33:29.490Z,18.73
2019-05-21T23:38:32.182Z,19.73
2019-05-21T23:43:34.972Z,20.95
2019-05-21T23:48:37.900Z,19.85
2019-05-21T23:53:40.668Z,21.45
2019-05-21T23:58:43.399Z,22.65
